sensor_id;sensor_type;location;lat;lon;timestamp;temperature;humidity
6110;DHT22;3085;49.444;11.054;2023-08-24T00:01:10;23.10;99.90
6110;DHT22;3085;49.444;11.054;2023-08-24T00:03:37;22.90;99.90
6110;DHT22;3085;49.444;11.054;2023-08-24T00:06:04;23.10;99.90
6110;DHT22;3085;49.444;11.054;2023-08-24T00:08:31;23.30;99.90
6110;DHT22;3085;49.444;11.054;2023-08-24T00:10:58;23.30;99.90
6110;DHT22;3085;49.444;11.054;2023-08-24T00:13:27;23.30;99.90
6110;DHT22;3085;49.444;11.054;2023-08-24T00:15:54;23.10;99.90
6110;DHT22;3085;49.444;11.054;2023-08-24T00:18:21;23.20;99.90
6110;DHT22;3085;49.444;11.054;2023-08-24T00:20:48;23.40;99.90
6110;DHT22;3085;49.444;11.054;2023-08-24T00:23:15;23.40;99.90
6110;DHT22;3085;49.444;11.054;2023-08-24T00:25:41;23.10;99.90
6110;DHT22;3085;49.444;11.054;2023-08-24T00:28:08;23.50;99.90
6110;DHT22;3085;49.444;11.054;2023-08-24T00:30:37;23.50;99.90
6110;DHT22;3085;49.444;11.054;2023-08-24T00:33:03;23.50;99.90
6110;DHT22;3085;49.444;11.054;2023-08-24T00:35:30;23.60;99.90
6110;DHT22;3085;49.444;11.054;2023-08-24T00:37:57;23.50;99.90
6110;DHT22;3085;49.444;11.054;2023-08-24T00:40:25;23.50;99.90
6110;DHT22;3085;49.444;11.054;2023-08-24T00:42:52;23.50;99.90
6110;DHT22;3085;49.444;11.054;2023-08-24T00:45:18;23.60;99.90
6110;DHT22;3085;49.444;11.054;2023-08-24T00:47:48;23.60;99.90
6110;DHT22;3085;49.444;11.054;2023-08-24T00:50:17;23.90;99.90
6110;DHT22;3085;49.444;11.054;2023-08-24T00:52:46;23.40;99.90
6110;DHT22;3085;49.444;11.054;2023-08-24T00:55:14;23.40;99.90
6110;DHT22;3085;49.444;11.054;2023-08-24T00:57:41;23.40;99.90
6110;DHT22;3085;49.444;11.054;2023-08-24T01:00:08;23.40;99.90
6110;DHT22;3085;49.444;11.054;2023-08-24T01:02:36;23.40;99.90
6110;DHT22;3085;49.444;11.054;2023-08-24T01:05:05;23.40;99.90
6110;DHT22;3085;49.444;11.054;2023-08-24T01:07:32;23.40;99.90
6110;DHT22;3085;49.444;11.054;2023-08-24T01:10:00;23.40;99.90
6110;DHT22;3085;49.444;11.054;2023-08-24T01:12:36;22.70;99.90
6110;DHT22;3085;49.444;11.054;2023-08-24T01:15:11;23.20;99.90
6110;DHT22;3085;49.444;11.054;2023-08-24T01:17:42;23.30;99.90
6110;DHT22;3085;49.444;11.054;2023-08-24T01:20:13;23.20;99.90
6110;DHT22;3085;49.444;11.054;2023-08-24T01:22:46;23.10;99.90
6110;DHT22;3085;49.444;11.054;2023-08-24T01:25:20;23.10;99.90
6110;DHT22;3085;49.444;11.054;2023-08-24T01:27:52;23.10;99.90
6110;DHT22;3085;49.444;11.054;2023-08-24T01:30:19;23.10;99.90
6110;DHT22;3085;49.444;11.054;2023-08-24T01:32:46;23.30;99.90
6110;DHT22;3085;49.444;11.054;2023-08-24T01:35:13;23.20;99.90
6110;DHT22;3085;49.444;11.054;2023-08-24T01:37:40;23.10;99.90
6110;DHT22;3085;49.444;11.054;2023-08-24T01:40:12;23.10;99.90
6110;DHT22;3085;49.444;11.054;2023-08-24T01:42:45;23.10;99.90
6110;DHT22;3085;49.444;11.054;2023-08-24T01:45:17;23.10;99.90
6110;DHT22;3085;49.444;11.054;2023-08-24T01:47:45;23.10;99.90
6110;DHT22;3085;49.444;11.054;2023-08-24T01:50:14;23.20;99.90
6110;DHT22;3085;49.444;11.054;2023-08-24T01:52:42;23.30;99.90
6110;DHT22;3085;49.444;11.054;2023-08-24T01:55:09;23.20;99.90
6110;DHT22;3085;49.444;11.054;2023-08-24T01:57:37;23.30;99.90
6110;DHT22;3085;49.444;11.054;2023-08-24T02:00:05;23.20;99.90
6110;DHT22;3085;49.444;11.054;2023-08-24T02:02:34;23.20;99.90
6110;DHT22;3085;49.444;11.054;2023-08-24T02:05:01;23.20;99.90
6110;DHT22;3085;49.444;11.054;2023-08-24T02:07:28;23.20;99.90
6110;DHT22;3085;49.444;11.054;2023-08-24T02:09:55;23.20;99.90
6110;DHT22;3085;49.444;11.054;2023-08-24T02:12:22;23.10;99.90
6110;DHT22;3085;49.444;11.054;2023-08-24T02:14:48;23.10;99.90
6110;DHT22;3085;49.444;11.054;2023-08-24T02:17:15;23.10;99.90
6110;DHT22;3085;49.444;11.054;2023-08-24T02:19:43;23.20;99.90
6110;DHT22;3085;49.444;11.054;2023-08-24T02:22:10;23.00;99.90
6110;DHT22;3085;49.444;11.054;2023-08-24T02:24:37;23.10;99.90
6110;DHT22;3085;49.444;11.054;2023-08-24T02:27:04;22.80;99.90
6110;DHT22;3085;49.444;11.054;2023-08-24T02:29:31;22.90;99.90
6110;DHT22;3085;49.444;11.054;2023-08-24T02:31:58;22.90;99.90
6110;DHT22;3085;49.444;11.054;2023-08-24T02:34:25;23.00;99.90
6110;DHT22;3085;49.444;11.054;2023-08-24T02:36:53;23.00;99.90
6110;DHT22;3085;49.444;11.054;2023-08-24T02:39:19;22.90;99.90
6110;DHT22;3085;49.444;11.054;2023-08-24T02:41:46;23.00;99.90
6110;DHT22;3085;49.444;11.054;2023-08-24T02:44:13;22.80;99.90
6110;DHT22;3085;49.444;11.054;2023-08-24T02:46:40;22.80;99.90
6110;DHT22;3085;49.444;11.054;2023-08-24T02:49:08;22.90;99.90
6110;DHT22;3085;49.444;11.054;2023-08-24T02:51:35;22.80;99.90
6110;DHT22;3085;49.444;11.054;2023-08-24T02:54:03;22.80;99.90
6110;DHT22;3085;49.444;11.054;2023-08-24T02:56:30;22.80;99.90
6110;DHT22;3085;49.444;11.054;2023-08-24T02:58:57;22.80;99.90
6110;DHT22;3085;49.444;11.054;2023-08-24T03:01:24;22.90;99.90
6110;DHT22;3085;49.444;11.054;2023-08-24T03:03:52;22.90;99.90
6110;DHT22;3085;49.444;11.054;2023-08-24T03:06:18;22.90;99.90
6110;DHT22;3085;49.444;11.054;2023-08-24T03:08:46;22.80;99.90
6110;DHT22;3085;49.444;11.054;2023-08-24T03:11:14;22.80;99.90
6110;DHT22;3085;49.444;11.054;2023-08-24T03:13:41;22.70;99.90
6110;DHT22;3085;49.444;11.054;2023-08-24T03:16:09;22.60;99.90
6110;DHT22;3085;49.444;11.054;2023-08-24T03:18:35;22.60;99.90
6110;DHT22;3085;49.444;11.054;2023-08-24T03:21:02;22.60;99.90
6110;DHT22;3085;49.444;11.054;2023-08-24T03:23:29;22.60;99.90
6110;DHT22;3085;49.444;11.054;2023-08-24T03:25:57;22.60;99.90
6110;DHT22;3085;49.444;11.054;2023-08-24T03:28:25;22.60;99.90
6110;DHT22;3085;49.444;11.054;2023-08-24T03:30:52;22.50;99.90
6110;DHT22;3085;49.444;11.054;2023-08-24T03:33:21;22.60;99.90
6110;DHT22;3085;49.444;11.054;2023-08-24T03:35:47;22.60;99.90
6110;DHT22;3085;49.444;11.054;2023-08-24T03:38:15;22.50;99.90
6110;DHT22;3085;49.444;11.054;2023-08-24T03:40:42;22.50;99.90
6110;DHT22;3085;49.444;11.054;2023-08-24T03:43:09;22.50;99.90
6110;DHT22;3085;49.444;11.054;2023-08-24T03:45:37;22.30;99.90
6110;DHT22;3085;49.444;11.054;2023-08-24T03:48:04;22.30;99.90
6110;DHT22;3085;49.444;11.054;2023-08-24T03:50:31;22.30;99.90
6110;DHT22;3085;49.444;11.054;2023-08-24T03:52:57;22.30;99.90
6110;DHT22;3085;49.444;11.054;2023-08-24T03:55:24;21.90;99.90
6110;DHT22;3085;49.444;11.054;2023-08-24T03:57:51;21.70;99.90
6110;DHT22;3085;49.444;11.054;2023-08-24T04:00:19;21.70;99.90
6110;DHT22;3085;49.444;11.054;2023-08-24T04:02:48;21.80;99.90
6110;DHT22;3085;49.444;11.054;2023-08-24T04:05:14;21.80;99.90
6110;DHT22;3085;49.444;11.054;2023-08-24T04:07:41;21.90;99.90
6110;DHT22;3085;49.444;11.054;2023-08-24T04:10:08;21.90;99.90
6110;DHT22;3085;49.444;11.054;2023-08-24T04:12:35;22.00;99.90
6110;DHT22;3085;49.444;11.054;2023-08-24T04:15:03;22.00;99.90
6110;DHT22;3085;49.444;11.054;2023-08-24T04:17:30;22.10;99.90
6110;DHT22;3085;49.444;11.054;2023-08-24T04:19:58;22.10;99.90
6110;DHT22;3085;49.444;11.054;2023-08-24T04:22:25;22.10;99.90
6110;DHT22;3085;49.444;11.054;2023-08-24T04:24:52;22.20;99.90
6110;DHT22;3085;49.444;11.054;2023-08-24T04:27:20;22.10;99.90
6110;DHT22;3085;49.444;11.054;2023-08-24T04:29:47;22.00;99.90
6110;DHT22;3085;49.444;11.054;2023-08-24T04:32:14;22.00;99.90
6110;DHT22;3085;49.444;11.054;2023-08-24T04:34:41;21.90;99.90
6110;DHT22;3085;49.444;11.054;2023-08-24T04:37:09;21.90;99.90
6110;DHT22;3085;49.444;11.054;2023-08-24T04:39:36;21.80;99.90
6110;DHT22;3085;49.444;11.054;2023-08-24T04:42:03;21.70;99.90
6110;DHT22;3085;49.444;11.054;2023-08-24T04:44:30;21.80;99.90
6110;DHT22;3085;49.444;11.054;2023-08-24T04:46:57;21.70;99.90
6110;DHT22;3085;49.444;11.054;2023-08-24T04:49:24;21.60;99.90
6110;DHT22;3085;49.444;11.054;2023-08-24T04:51:51;21.50;99.90
6110;DHT22;3085;49.444;11.054;2023-08-24T04:54:19;21.50;99.90
6110;DHT22;3085;49.444;11.054;2023-08-24T04:56:47;21.80;99.90
6110;DHT22;3085;49.444;11.054;2023-08-24T04:59:13;21.70;99.90
6110;DHT22;3085;49.444;11.054;2023-08-24T05:01:40;21.70;99.90
6110;DHT22;3085;49.444;11.054;2023-08-24T05:04:07;21.70;99.90
6110;DHT22;3085;49.444;11.054;2023-08-24T05:06:34;21.80;99.90
6110;DHT22;3085;49.444;11.054;2023-08-24T05:09:01;21.70;99.90
6110;DHT22;3085;49.444;11.054;2023-08-24T05:11:29;21.70;99.90
6110;DHT22;3085;49.444;11.054;2023-08-24T05:13:56;21.60;99.90
6110;DHT22;3085;49.444;11.054;2023-08-24T05:16:23;21.70;99.90
6110;DHT22;3085;49.444;11.054;2023-08-24T05:18:51;21.70;99.90
6110;DHT22;3085;49.444;11.054;2023-08-24T05:21:18;21.70;99.90
6110;DHT22;3085;49.444;11.054;2023-08-24T05:23:44;21.60;99.90
6110;DHT22;3085;49.444;11.054;2023-08-24T05:26:11;21.70;99.90
6110;DHT22;3085;49.444;11.054;2023-08-24T05:28:40;21.60;99.90
6110;DHT22;3085;49.444;11.054;2023-08-24T05:31:07;21.80;99.90
6110;DHT22;3085;49.444;11.054;2023-08-24T05:33:34;21.80;99.90
6110;DHT22;3085;49.444;11.054;2023-08-24T05:36:01;21.80;99.90
6110;DHT22;3085;49.444;11.054;2023-08-24T05:38:28;21.90;99.90
6110;DHT22;3085;49.444;11.054;2023-08-24T05:40:55;21.90;99.90
6110;DHT22;3085;49.444;11.054;2023-08-24T05:43:22;22.00;99.90
6110;DHT22;3085;49.444;11.054;2023-08-24T05:45:50;22.00;99.90
6110;DHT22;3085;49.444;11.054;2023-08-24T05:48:17;22.10;99.90
6110;DHT22;3085;49.444;11.054;2023-08-24T05:50:44;22.20;99.90
6110;DHT22;3085;49.444;11.054;2023-08-24T05:53:11;22.20;99.90
6110;DHT22;3085;49.444;11.054;2023-08-24T05:55:38;22.20;99.90
6110;DHT22;3085;49.444;11.054;2023-08-24T05:58:05;22.30;99.90
6110;DHT22;3085;49.444;11.054;2023-08-24T06:00:32;22.40;99.90
6110;DHT22;3085;49.444;11.054;2023-08-24T06:03:01;22.40;99.90
6110;DHT22;3085;49.444;11.054;2023-08-24T06:05:29;22.40;99.90
6110;DHT22;3085;49.444;11.054;2023-08-24T06:07:57;22.40;99.90
6110;DHT22;3085;49.444;11.054;2023-08-24T06:10:24;22.40;99.90
6110;DHT22;3085;49.444;11.054;2023-08-24T06:12:51;22.40;99.90
6110;DHT22;3085;49.444;11.054;2023-08-24T06:15:18;23.00;99.90
6110;DHT22;3085;49.444;11.054;2023-08-24T06:17:49;22.40;99.90
6110;DHT22;3085;49.444;11.054;2023-08-24T06:20:19;22.40;99.90
6110;DHT22;3085;49.444;11.054;2023-08-24T06:22:45;22.50;99.90
6110;DHT22;3085;49.444;11.054;2023-08-24T06:25:12;22.50;99.90
6110;DHT22;3085;49.444;11.054;2023-08-24T06:27:40;22.50;99.90
6110;DHT22;3085;49.444;11.054;2023-08-24T06:30:07;22.60;99.90
6110;DHT22;3085;49.444;11.054;2023-08-24T06:32:34;22.60;99.90
6110;DHT22;3085;49.444;11.054;2023-08-24T06:35:02;22.80;99.90
6110;DHT22;3085;49.444;11.054;2023-08-24T06:37:30;22.80;99.90
6110;DHT22;3085;49.444;11.054;2023-08-24T06:39:57;22.80;99.90
6110;DHT22;3085;49.444;11.054;2023-08-24T06:42:24;22.90;99.90
6110;DHT22;3085;49.444;11.054;2023-08-24T06:44:51;22.90;99.90
6110;DHT22;3085;49.444;11.054;2023-08-24T06:47:18;22.90;99.90
6110;DHT22;3085;49.444;11.054;2023-08-24T06:49:45;22.90;99.90
6110;DHT22;3085;49.444;11.054;2023-08-24T06:52:11;22.90;99.90
6110;DHT22;3085;49.444;11.054;2023-08-24T06:54:40;23.00;99.90
6110;DHT22;3085;49.444;11.054;2023-08-24T06:57:07;23.10;99.90
6110;DHT22;3085;49.444;11.054;2023-08-24T06:59:35;23.10;99.90
6110;DHT22;3085;49.444;11.054;2023-08-24T07:02:01;22.90;99.90
6110;DHT22;3085;49.444;11.054;2023-08-24T07:04:29;23.00;99.90
6110;DHT22;3085;49.444;11.054;2023-08-24T07:06:57;23.00;99.90
6110;DHT22;3085;49.444;11.054;2023-08-24T07:09:23;23.10;99.90
6110;DHT22;3085;49.444;11.054;2023-08-24T07:11:52;23.10;99.90
6110;DHT22;3085;49.444;11.054;2023-08-24T07:14:18;23.00;99.90
6110;DHT22;3085;49.444;11.054;2023-08-24T07:16:45;22.90;99.90
6110;DHT22;3085;49.444;11.054;2023-08-24T07:19:12;23.00;99.90
6110;DHT22;3085;49.444;11.054;2023-08-24T07:21:40;23.00;99.90
6110;DHT22;3085;49.444;11.054;2023-08-24T07:24:07;23.00;99.90
6110;DHT22;3085;49.444;11.054;2023-08-24T07:26:33;23.00;99.90
6110;DHT22;3085;49.444;11.054;2023-08-24T07:29:02;23.00;99.90
6110;DHT22;3085;49.444;11.054;2023-08-24T07:31:29;23.00;99.90
6110;DHT22;3085;49.444;11.054;2023-08-24T07:33:55;22.80;99.90
6110;DHT22;3085;49.444;11.054;2023-08-24T07:36:22;22.40;99.90
6110;DHT22;3085;49.444;11.054;2023-08-24T07:38:49;22.30;99.90
6110;DHT22;3085;49.444;11.054;2023-08-24T07:41:16;22.30;99.90
6110;DHT22;3085;49.444;11.054;2023-08-24T07:43:43;22.50;99.90
6110;DHT22;3085;49.444;11.054;2023-08-24T07:46:12;22.60;99.90
6110;DHT22;3085;49.444;11.054;2023-08-24T07:48:39;22.40;99.90
6110;DHT22;3085;49.444;11.054;2023-08-24T07:51:08;22.40;99.90
6110;DHT22;3085;49.444;11.054;2023-08-24T07:53:35;22.80;99.90
6110;DHT22;3085;49.444;11.054;2023-08-24T07:56:02;22.40;99.90
6110;DHT22;3085;49.444;11.054;2023-08-24T07:58:29;22.40;99.90
6110;DHT22;3085;49.444;11.054;2023-08-24T08:00:58;22.40;99.90
6110;DHT22;3085;49.444;11.054;2023-08-24T08:03:26;22.60;99.90
6110;DHT22;3085;49.444;11.054;2023-08-24T08:05:55;22.60;99.90
6110;DHT22;3085;49.444;11.054;2023-08-24T08:08:23;22.60;99.90
6110;DHT22;3085;49.444;11.054;2023-08-24T08:10:57;22.80;99.90
6110;DHT22;3085;49.444;11.054;2023-08-24T08:13:25;22.90;99.90
6110;DHT22;3085;49.444;11.054;2023-08-24T08:15:52;22.90;99.90
6110;DHT22;3085;49.444;11.054;2023-08-24T08:18:19;22.90;99.90
6110;DHT22;3085;49.444;11.054;2023-08-24T08:20:51;23.40;99.90
6110;DHT22;3085;49.444;11.054;2023-08-24T08:23:18;23.00;99.90
6110;DHT22;3085;49.444;11.054;2023-08-24T08:25:44;23.20;99.90
6110;DHT22;3085;49.444;11.054;2023-08-24T08:28:11;23.20;99.90
6110;DHT22;3085;49.444;11.054;2023-08-24T08:30:38;23.30;99.90
6110;DHT22;3085;49.444;11.054;2023-08-24T08:33:05;23.60;99.90
6110;DHT22;3085;49.444;11.054;2023-08-24T08:35:32;23.70;99.90
6110;DHT22;3085;49.444;11.054;2023-08-24T08:38:00;24.50;99.90
6110;DHT22;3085;49.444;11.054;2023-08-24T08:40:30;23.90;99.90
6110;DHT22;3085;49.444;11.054;2023-08-24T08:42:57;24.00;99.90
6110;DHT22;3085;49.444;11.054;2023-08-24T08:45:24;24.20;99.90
6110;DHT22;3085;49.444;11.054;2023-08-24T08:47:55;24.30;99.90
6110;DHT22;3085;49.444;11.054;2023-08-24T08:50:22;24.30;99.90
6110;DHT22;3085;49.444;11.054;2023-08-24T08:52:50;24.50;99.90
6110;DHT22;3085;49.444;11.054;2023-08-24T08:55:18;24.50;99.90
6110;DHT22;3085;49.444;11.054;2023-08-24T08:57:47;24.60;99.90
6110;DHT22;3085;49.444;11.054;2023-08-24T09:00:15;24.80;99.90
6110;DHT22;3085;49.444;11.054;2023-08-24T09:02:45;24.90;99.90
6110;DHT22;3085;49.444;11.054;2023-08-24T09:05:15;25.00;99.90
6110;DHT22;3085;49.444;11.054;2023-08-24T09:07:42;25.10;99.90
6110;DHT22;3085;49.444;11.054;2023-08-24T09:10:09;25.20;99.90
6110;DHT22;3085;49.444;11.054;2023-08-24T09:12:37;25.30;99.90
6110;DHT22;3085;49.444;11.054;2023-08-24T09:15:05;25.40;99.90
6110;DHT22;3085;49.444;11.054;2023-08-24T09:17:32;25.50;99.90
6110;DHT22;3085;49.444;11.054;2023-08-24T09:20:05;25.50;99.90
6110;DHT22;3085;49.444;11.054;2023-08-24T09:22:35;25.70;99.90
6110;DHT22;3085;49.444;11.054;2023-08-24T09:25:02;25.90;99.90
6110;DHT22;3085;49.444;11.054;2023-08-24T09:27:32;25.90;99.90
6110;DHT22;3085;49.444;11.054;2023-08-24T09:30:02;25.90;99.90
6110;DHT22;3085;49.444;11.054;2023-08-24T09:32:30;25.80;99.90
6110;DHT22;3085;49.444;11.054;2023-08-24T09:35:02;25.80;99.90
6110;DHT22;3085;49.444;11.054;2023-08-24T09:37:31;25.80;99.90
6110;DHT22;3085;49.444;11.054;2023-08-24T09:40:01;25.80;99.90
6110;DHT22;3085;49.444;11.054;2023-08-24T09:42:37;25.90;99.90
6110;DHT22;3085;49.444;11.054;2023-08-24T09:45:07;25.80;99.90
6110;DHT22;3085;49.444;11.054;2023-08-24T09:47:35;25.90;99.90
6110;DHT22;3085;49.444;11.054;2023-08-24T09:50:03;25.90;99.90
6110;DHT22;3085;49.444;11.054;2023-08-24T09:52:32;26.10;99.90
6110;DHT22;3085;49.444;11.054;2023-08-24T09:55:02;26.20;99.90
6110;DHT22;3085;49.444;11.054;2023-08-24T09:57:33;26.30;99.90
6110;DHT22;3085;49.444;11.054;2023-08-24T10:00:03;26.40;99.90
6110;DHT22;3085;49.444;11.054;2023-08-24T10:02:37;26.40;99.90
6110;DHT22;3085;49.444;11.054;2023-08-24T10:05:08;26.50;99.90
6110;DHT22;3085;49.444;11.054;2023-08-24T10:07:37;26.60;99.90
6110;DHT22;3085;49.444;11.054;2023-08-24T10:10:08;26.70;99.90
6110;DHT22;3085;49.444;11.054;2023-08-24T10:12:44;26.70;99.90
6110;DHT22;3085;49.444;11.054;2023-08-24T10:15:13;26.80;99.90
6110;DHT22;3085;49.444;11.054;2023-08-24T10:17:42;26.80;99.90
6110;DHT22;3085;49.444;11.054;2023-08-24T10:20:10;26.90;99.90
6110;DHT22;3085;49.444;11.054;2023-08-24T10:22:37;27.00;99.90
6110;DHT22;3085;49.444;11.054;2023-08-24T10:25:07;27.00;99.90
6110;DHT22;3085;49.444;11.054;2023-08-24T10:27:34;27.00;99.90
6110;DHT22;3085;49.444;11.054;2023-08-24T10:30:01;27.10;99.90
6110;DHT22;3085;49.444;11.054;2023-08-24T10:32:29;27.10;99.90
6110;DHT22;3085;49.444;11.054;2023-08-24T10:34:58;27.20;99.90
6110;DHT22;3085;49.444;11.054;2023-08-24T10:37:26;27.30;99.90
6110;DHT22;3085;49.444;11.054;2023-08-24T10:39:53;27.30;99.90
6110;DHT22;3085;49.444;11.054;2023-08-24T10:42:19;27.40;99.90
6110;DHT22;3085;49.444;11.054;2023-08-24T10:44:47;27.40;99.90
6110;DHT22;3085;49.444;11.054;2023-08-24T10:47:16;27.40;99.90
6110;DHT22;3085;49.444;11.054;2023-08-24T10:49:45;27.40;99.90
6110;DHT22;3085;49.444;11.054;2023-08-24T10:52:25;27.30;99.90
6110;DHT22;3085;49.444;11.054;2023-08-24T10:54:53;27.60;99.90
6110;DHT22;3085;49.444;11.054;2023-08-24T10:57:22;27.60;99.90
6110;DHT22;3085;49.444;11.054;2023-08-24T10:59:59;27.70;99.90
6110;DHT22;3085;49.444;11.054;2023-08-24T11:02:26;27.70;99.90
6110;DHT22;3085;49.444;11.054;2023-08-24T11:05:19;27.90;99.90
6110;DHT22;3085;49.444;11.054;2023-08-24T11:07:52;27.70;99.90
6110;DHT22;3085;49.444;11.054;2023-08-24T11:10:20;27.80;99.90
6110;DHT22;3085;49.444;11.054;2023-08-24T11:13:10;27.80;99.90
6110;DHT22;3085;49.444;11.054;2023-08-24T11:15:42;27.80;99.90
6110;DHT22;3085;49.444;11.054;2023-08-24T11:18:13;27.90;99.90
6110;DHT22;3085;49.444;11.054;2023-08-24T11:20:42;28.00;99.90
6110;DHT22;3085;49.444;11.054;2023-08-24T11:23:10;28.00;99.90
6110;DHT22;3085;49.444;11.054;2023-08-24T11:25:37;28.00;99.90
6110;DHT22;3085;49.444;11.054;2023-08-24T11:28:05;28.10;99.90
6110;DHT22;3085;49.444;11.054;2023-08-24T11:30:32;28.10;99.90
6110;DHT22;3085;49.444;11.054;2023-08-24T11:32:59;28.20;99.90
6110;DHT22;3085;49.444;11.054;2023-08-24T11:35:26;28.20;99.90
6110;DHT22;3085;49.444;11.054;2023-08-24T11:37:53;28.30;99.90
6110;DHT22;3085;49.444;11.054;2023-08-24T11:40:22;28.30;99.90
6110;DHT22;3085;49.444;11.054;2023-08-24T11:42:53;28.50;99.90
6110;DHT22;3085;49.444;11.054;2023-08-24T11:45:20;28.40;99.90
6110;DHT22;3085;49.444;11.054;2023-08-24T11:47:48;28.40;99.90
6110;DHT22;3085;49.444;11.054;2023-08-24T11:50:16;28.50;99.90
6110;DHT22;3085;49.444;11.054;2023-08-24T11:52:43;28.50;99.90
6110;DHT22;3085;49.444;11.054;2023-08-24T11:55:10;28.50;99.90
6110;DHT22;3085;49.444;11.054;2023-08-24T11:57:38;28.60;99.90
6110;DHT22;3085;49.444;11.054;2023-08-24T12:00:06;28.60;99.90
6110;DHT22;3085;49.444;11.054;2023-08-24T12:02:34;28.70;99.90
6110;DHT22;3085;49.444;11.054;2023-08-24T12:05:05;28.60;99.90
6110;DHT22;3085;49.444;11.054;2023-08-24T12:07:33;28.70;99.90
6110;DHT22;3085;49.444;11.054;2023-08-24T12:10:00;28.70;99.90
6110;DHT22;3085;49.444;11.054;2023-08-24T12:12:27;28.70;99.90
6110;DHT22;3085;49.444;11.054;2023-08-24T12:14:56;28.90;99.90
6110;DHT22;3085;49.444;11.054;2023-08-24T12:17:24;28.90;99.90
6110;DHT22;3085;49.444;11.054;2023-08-24T12:19:57;28.90;99.90
6110;DHT22;3085;49.444;11.054;2023-08-24T12:22:25;29.00;99.90
6110;DHT22;3085;49.444;11.054;2023-08-24T12:24:52;29.00;99.90
6110;DHT22;3085;49.444;11.054;2023-08-24T12:27:25;29.10;99.90
6110;DHT22;3085;49.444;11.054;2023-08-24T12:29:52;29.10;99.90
6110;DHT22;3085;49.444;11.054;2023-08-24T12:32:21;29.20;99.90
6110;DHT22;3085;49.444;11.054;2023-08-24T12:34:50;29.20;99.90
6110;DHT22;3085;49.444;11.054;2023-08-24T12:37:18;29.40;99.90
6110;DHT22;3085;49.444;11.054;2023-08-24T12:39:44;29.50;99.90
6110;DHT22;3085;49.444;11.054;2023-08-24T12:42:11;29.60;99.90
6110;DHT22;3085;49.444;11.054;2023-08-24T12:44:38;29.50;99.90
6110;DHT22;3085;49.444;11.054;2023-08-24T12:47:05;29.40;99.90
6110;DHT22;3085;49.444;11.054;2023-08-24T12:49:33;29.40;99.90
6110;DHT22;3085;49.444;11.054;2023-08-24T12:52:00;29.50;99.90
6110;DHT22;3085;49.444;11.054;2023-08-24T12:54:26;29.60;99.90
6110;DHT22;3085;49.444;11.054;2023-08-24T12:56:53;29.70;99.90
6110;DHT22;3085;49.444;11.054;2023-08-24T12:59:20;29.80;99.90
6110;DHT22;3085;49.444;11.054;2023-08-24T13:01:47;29.90;99.90
6110;DHT22;3085;49.444;11.054;2023-08-24T13:04:14;29.90;99.90
6110;DHT22;3085;49.444;11.054;2023-08-24T13:06:42;30.00;99.90
6110;DHT22;3085;49.444;11.054;2023-08-24T13:09:09;30.10;99.90
6110;DHT22;3085;49.444;11.054;2023-08-24T13:11:37;30.20;99.90
6110;DHT22;3085;49.444;11.054;2023-08-24T13:14:04;30.20;99.90
6110;DHT22;3085;49.444;11.054;2023-08-24T13:16:30;30.30;99.90
6110;DHT22;3085;49.444;11.054;2023-08-24T13:18:57;30.30;99.90
6110;DHT22;3085;49.444;11.054;2023-08-24T13:21:24;30.40;99.90
6110;DHT22;3085;49.444;11.054;2023-08-24T13:23:53;30.50;99.90
6110;DHT22;3085;49.444;11.054;2023-08-24T13:26:20;30.50;99.90
6110;DHT22;3085;49.444;11.054;2023-08-24T13:28:48;30.40;99.90
6110;DHT22;3085;49.444;11.054;2023-08-24T13:31:16;30.40;99.90
6110;DHT22;3085;49.444;11.054;2023-08-24T13:33:42;30.40;99.90
6110;DHT22;3085;49.444;11.054;2023-08-24T13:36:09;30.50;99.90
6110;DHT22;3085;49.444;11.054;2023-08-24T13:38:36;30.70;99.90
6110;DHT22;3085;49.444;11.054;2023-08-24T13:41:04;30.70;99.90
6110;DHT22;3085;49.444;11.054;2023-08-24T13:43:31;30.80;99.90
6110;DHT22;3085;49.444;11.054;2023-08-24T13:45:58;30.70;99.90
6110;DHT22;3085;49.444;11.054;2023-08-24T13:48:25;30.60;99.90
6110;DHT22;3085;49.444;11.054;2023-08-24T13:50:52;30.50;99.90
6110;DHT22;3085;49.444;11.054;2023-08-24T13:53:19;30.40;99.90
6110;DHT22;3085;49.444;11.054;2023-08-24T13:55:46;30.40;99.90
6110;DHT22;3085;49.444;11.054;2023-08-24T13:58:14;30.30;99.90
6110;DHT22;3085;49.444;11.054;2023-08-24T14:00:41;30.30;99.90
6110;DHT22;3085;49.444;11.054;2023-08-24T14:03:08;30.40;99.90
6110;DHT22;3085;49.444;11.054;2023-08-24T14:05:38;30.50;99.90
6110;DHT22;3085;49.444;11.054;2023-08-24T14:08:05;30.40;99.90
6110;DHT22;3085;49.444;11.054;2023-08-24T14:10:33;30.20;99.90
6110;DHT22;3085;49.444;11.054;2023-08-24T14:13:00;30.50;99.90
6110;DHT22;3085;49.444;11.054;2023-08-24T14:15:28;30.60;99.90
6110;DHT22;3085;49.444;11.054;2023-08-24T14:17:55;30.60;99.90
6110;DHT22;3085;49.444;11.054;2023-08-24T14:20:22;30.70;99.90
6110;DHT22;3085;49.444;11.054;2023-08-24T14:22:49;30.70;99.90
6110;DHT22;3085;49.444;11.054;2023-08-24T14:25:16;30.90;99.90
6110;DHT22;3085;49.444;11.054;2023-08-24T14:27:43;30.70;99.90
6110;DHT22;3085;49.444;11.054;2023-08-24T14:30:11;30.70;99.90
6110;DHT22;3085;49.444;11.054;2023-08-24T14:32:39;30.90;99.90
6110;DHT22;3085;49.444;11.054;2023-08-24T14:35:06;31.00;99.90
6110;DHT22;3085;49.444;11.054;2023-08-24T14:37:34;30.90;99.90
6110;DHT22;3085;49.444;11.054;2023-08-24T14:40:01;31.00;99.90
6110;DHT22;3085;49.444;11.054;2023-08-24T14:42:29;31.10;99.90
6110;DHT22;3085;49.444;11.054;2023-08-24T14:44:55;31.30;99.90
6110;DHT22;3085;49.444;11.054;2023-08-24T14:47:23;31.20;99.90
6110;DHT22;3085;49.444;11.054;2023-08-24T14:49:51;31.30;99.90
6110;DHT22;3085;49.444;11.054;2023-08-24T14:52:18;31.50;99.90
6110;DHT22;3085;49.444;11.054;2023-08-24T14:54:45;31.30;99.90
6110;DHT22;3085;49.444;11.054;2023-08-24T14:57:11;31.60;99.90
6110;DHT22;3085;49.444;11.054;2023-08-24T14:59:39;31.60;99.90
6110;DHT22;3085;49.444;11.054;2023-08-24T15:02:05;31.60;99.90
6110;DHT22;3085;49.444;11.054;2023-08-24T15:04:32;31.70;99.90
6110;DHT22;3085;49.444;11.054;2023-08-24T15:07:00;31.80;99.90
6110;DHT22;3085;49.444;11.054;2023-08-24T15:09:27;31.70;99.90
6110;DHT22;3085;49.444;11.054;2023-08-24T15:11:54;31.80;99.90
6110;DHT22;3085;49.444;11.054;2023-08-24T15:14:20;31.80;99.90
6110;DHT22;3085;49.444;11.054;2023-08-24T15:16:47;31.90;99.90
6110;DHT22;3085;49.444;11.054;2023-08-24T15:19:14;32.00;99.90
6110;DHT22;3085;49.444;11.054;2023-08-24T15:21:40;32.10;99.90
6110;DHT22;3085;49.444;11.054;2023-08-24T15:24:08;32.20;99.90
6110;DHT22;3085;49.444;11.054;2023-08-24T15:26:35;32.00;99.90
6110;DHT22;3085;49.444;11.054;2023-08-24T15:29:12;32.10;99.90
6110;DHT22;3085;49.444;11.054;2023-08-24T15:31:40;31.80;99.90
6110;DHT22;3085;49.444;11.054;2023-08-24T15:34:07;31.80;99.90
6110;DHT22;3085;49.444;11.054;2023-08-24T15:36:34;31.70;99.90
6110;DHT22;3085;49.444;11.054;2023-08-24T15:39:01;31.60;99.90
6110;DHT22;3085;49.444;11.054;2023-08-24T15:41:30;31.60;99.90
6110;DHT22;3085;49.444;11.054;2023-08-24T15:43:57;31.60;99.90
6110;DHT22;3085;49.444;11.054;2023-08-24T15:46:24;31.70;99.90
6110;DHT22;3085;49.444;11.054;2023-08-24T15:48:50;31.70;99.90